»·PEaware :: AAL5303 KSFO-KBUR

AAL5303 :: KSFO-KBUR

FLIGHT INFORMATION

Flight Status: Arrived
Operator:
American Airlines
More flights by this operator :: More flights under this callsign
Pilot: Tim M. (868)
Aircraft: MCDONNELL-DOUGLAS MD-82
(MD82)
More flights by this aircraft type
Origin: KSFO San Francisco Intl
United States
Destination: KBUR Bob Hope-Burbank
United States
More flights between these airports :: More routes between these airports
Route: +WESLA4 CISKO DCT RDHOT ROKKR2
File this flight plan on PilotEdge
Remarks:
Altitude:
(Current/Filed)
35,000ft
Speed:
(Current/Filed)
449kts
Departed: 24-Aug-20 06:49 PM
Arrived: 24-Aug-20 07:44 PM
Distance/Time
Traveled:
283nm/0:55
Distance/Time
To Go:
Arrived

Flight Plot

Page will automatically refresh every two minutes.

Flight plan parsing failed; only flown route is shown


Map Options




Map Legend


Flown Route
Filed Route
Departure Airport
Arrival Airport
Navaid (VOR, NDB)
Fix

Horizontal Profiles

Position Reports

Time Latitude Longitude Heading Altitude Ground
Speed
24-Aug-20 18:06 37.621299 -122.389219 208 22ft 0kts
24-Aug-20 18:07 37.621299 -122.389219 208 22ft 0kts
24-Aug-20 18:08 37.621299 -122.389219 208 22ft 0kts
24-Aug-20 18:09 37.621299 -122.389219 208 22ft 0kts
24-Aug-20 18:10 37.621299 -122.389219 208 22ft 0kts
24-Aug-20 18:11 37.621299 -122.389219 208 22ft 0kts
24-Aug-20 18:12 37.621299 -122.389219 208 22ft 0kts
24-Aug-20 18:13 37.621299 -122.389219 208 22ft 0kts
24-Aug-20 18:14 37.621299 -122.389219 208 22ft 0kts
24-Aug-20 18:15 37.621299 -122.389219 208 22ft 0kts
24-Aug-20 18:17 37.621299 -122.389219 208 22ft 0kts
24-Aug-20 18:18 37.621299 -122.389219 208 22ft 0kts
24-Aug-20 18:19 37.621299 -122.389219 208 22ft 0kts
24-Aug-20 18:20 37.621299 -122.389219 208 22ft 0kts
24-Aug-20 18:21 37.621299 -122.389219 208 22ft 0kts
24-Aug-20 18:22 37.621299 -122.389219 208 22ft 0kts
24-Aug-20 18:23 37.621299 -122.389219 208 22ft 0kts
24-Aug-20 18:24 37.621299 -122.389219 208 22ft 0kts
24-Aug-20 18:25 37.621299 -122.389219 208 22ft 0kts
24-Aug-20 18:26 37.621299 -122.389219 208 22ft 0kts
24-Aug-20 18:27 37.621299 -122.389219 208 22ft 0kts
24-Aug-20 18:28 37.621299 -122.389219 208 22ft 0kts
24-Aug-20 18:29 37.621299 -122.389219 208 22ft 0kts
24-Aug-20 18:30 37.621299 -122.389219 208 22ft 0kts
24-Aug-20 18:31 37.621299 -122.389219 208 22ft 0kts
24-Aug-20 18:32 37.621299 -122.389219 208 22ft 0kts
24-Aug-20 18:32 37.621299 -122.389219 208 22ft 0kts
24-Aug-20 18:34 37.621299 -122.389219 208 22ft 0kts
24-Aug-20 18:35 37.621299 -122.389219 208 22ft 0kts
24-Aug-20 18:35 37.621299 -122.389219 208 22ft 0kts
24-Aug-20 18:37 37.621299 -122.389219 208 22ft 0kts
24-Aug-20 18:37 37.621299 -122.389219 208 22ft 0kts
24-Aug-20 18:38 37.621618 -122.389004 208 22ft 2kts
24-Aug-20 18:40 37.622447 -122.388772 140 22ft 2kts
24-Aug-20 18:40 37.622610 -122.389059 117 22ft 0kts
24-Aug-20 18:41 37.622609 -122.389056 117 22ft 0kts
24-Aug-20 18:42 37.622608 -122.389053 117 22ft 0kts
24-Aug-20 18:43 37.621383 -122.386141 117 22ft 19kts
24-Aug-20 18:44 37.618548 -122.379341 117 22ft 23kts
24-Aug-20 18:45 37.615832 -122.371768 116 22ft 24kts
24-Aug-20 18:46 37.612162 -122.364148 118 22ft 26kts
24-Aug-20 18:47 37.611463 -122.358665 21 22ft 14kts
24-Aug-20 18:48 37.614340 -122.364518 298 22ft 85kts
24-Aug-20 18:49 37.634234 -122.409685 298 1780ft 172kts
24-Aug-20 18:50 37.661718 -122.474656 295 3914ft 240kts
24-Aug-20 18:51 37.647862 -122.546603 197 6712ft 258kts
24-Aug-20 18:52 37.575660 -122.528483 156 9338ft 276kts
24-Aug-20 18:53 37.502292 -122.483340 153 10789ft 325kts
24-Aug-20 18:54 37.431888 -122.407440 136 12974ft 341kts
24-Aug-20 18:55 37.364328 -122.321239 138 15510ft 350kts
24-Aug-20 18:56 37.292786 -122.235745 139 18068ft 361kts
24-Aug-20 18:57 37.218632 -122.147456 140 20315ft 373kts
24-Aug-20 18:58 37.142203 -122.056093 140 22310ft 384kts
24-Aug-20 18:59 37.067223 -121.965731 140 22896ft 344kts
24-Aug-20 19:00 36.997662 -121.883421 141 23293ft 367kts
24-Aug-20 19:01 36.919277 -121.790855 141 24325ft 398kts
24-Aug-20 19:02 36.838245 -121.694313 141 25951ft 406kts
24-Aug-20 19:03 36.755157 -121.596584 142 27331ft 416kts
24-Aug-20 19:04 36.670320 -121.496752 142 28643ft 424kts
24-Aug-20 19:05 36.588213 -121.400301 142 30189ft 421kts
24-Aug-20 19:06 36.503277 -121.299740 142 31571ft 420kts
24-Aug-20 19:07 36.417805 -121.201042 143 32843ft 418kts
24-Aug-20 19:08 36.330097 -121.106731 147 33963ft 415kts
24-Aug-20 19:09 36.240575 -121.016967 146 34861ft 415kts
24-Aug-20 19:10 36.151446 -120.925495 145 34862ft 413kts
24-Aug-20 19:11 36.069300 -120.840917 145 34852ft 413kts
24-Aug-20 19:12 35.986185 -120.756114 145 34969ft 417kts
24-Aug-20 19:13 35.896367 -120.665173 145 34964ft 416kts
24-Aug-20 19:14 35.806715 -120.574758 145 34922ft 416kts
24-Aug-20 19:15 35.717320 -120.484662 145 34874ft 415kts
24-Aug-20 19:16 35.627235 -120.395166 146 34913ft 415kts
24-Aug-20 19:17 35.539941 -120.305852 143 34920ft 417kts
24-Aug-20 19:18 35.451898 -120.212192 144 34210ft 423kts
24-Aug-20 19:19 35.365186 -120.122169 144 32238ft 402kts
24-Aug-20 19:20 35.283749 -120.038536 144 30380ft 427kts
24-Aug-20 19:21 35.195800 -119.946945 144 28381ft 406kts
24-Aug-20 19:22 35.114014 -119.863018 144 26458ft 393kts
24-Aug-20 19:23 35.031326 -119.778847 144 24459ft 381kts
24-Aug-20 19:24 34.951452 -119.696635 143 22458ft 369kts
24-Aug-20 19:25 34.874192 -119.616603 139 20456ft 360kts
24-Aug-20 19:26 34.811081 -119.524067 131 18708ft 345kts
24-Aug-20 19:27 34.755526 -119.439054 132 17275ft 330kts
24-Aug-20 19:28 34.698789 -119.352520 132 15772ft 322kts
24-Aug-20 19:29 34.647092 -119.273608 130 14379ft 320kts
24-Aug-20 19:30 34.603691 -119.189266 123 13013ft 315kts
24-Aug-20 19:31 34.559625 -119.098889 124 11597ft 301kts
24-Aug-20 19:32 34.502958 -119.031839 142 10362ft 280kts
24-Aug-20 19:33 34.441449 -118.973964 144 9064ft 281kts
24-Aug-20 19:34 34.381623 -118.915601 142 8082ft 280kts
24-Aug-20 19:35 34.328035 -118.857852 138 7187ft 271kts
24-Aug-20 19:36 34.273754 -118.797923 138 7016ft 266kts
24-Aug-20 19:37 34.239399 -118.721678 101 6153ft 261kts
24-Aug-20 19:38 34.223291 -118.641410 111 5299ft 237kts
24-Aug-20 19:39 34.204606 -118.575499 103 4666ft 219kts
24-Aug-20 19:40 34.200653 -118.504596 94 3263ft 215kts
24-Aug-20 19:41 34.198318 -118.435570 87 1836ft 201kts
24-Aug-20 19:42 34.197778 -118.386882 88 1135ft 128kts
24-Aug-20 19:43 34.197711 -118.354505 90 787ft 35kts
24-Aug-20 19:44 34.198563 -118.352161 32 787ft 0kts
24-Aug-20 19:45 34.198826 -118.351111 89 787ft 7kts
24-Aug-20 19:46 34.197334 -118.350560 232 787ft 4kts
24-Aug-20 19:47 34.197069 -118.354945 245 787ft 2kts
24-Aug-20 19:48 34.196731 -118.355036 137 787ft 1kts
24-Aug-20 19:49 34.196640 -118.354976 154 787ft 0kts

Navigation Log

Ident Type
Flight plan parsing failed, navigation log unavailable